Bevent, Wisconsin
Current Conditions -  °F | °C
As of 6:53 AM on Thursday 23 Oct 2014 (Local Time) from KCWA Reporting Station
Light Rain Light Rain  
Wind Chill: 34°   Ceiling: 3900
Heat Index: 39°   Visibility: 7mi
Dew Point: 39°   Wind: 8mph
Humidity: 100%   Direction: 130°SE
Pressure: 30.11"   Gusts: NA
Location:  44.8205°N, 89.392°W
Report Text: KCWA 231153Z 13007KT 7SM -RA OVC039 04/04 A3011
Loading
Personal Weather Stations






























Interactive Weather Map
Tropical Storm Tracking
New forecast layout! Learn more

10-Day Weather Forecast

Advertisements
Track Severe Weather on mobile